KFUL/FUL METAR and TAF weather

Enter ICAO airport designator
Station Type Date Time Source
KFUL METAR 2021/09/16 08:53 UTC NOAA

KFUL 160853Z AUTO 00000KT 9SM OVC014 17/14 A2989 RMK AO2 SLP119 T01720144 50001


Station Type Date Time Source
KFUL Decoded METAR 2021/09/16 08:53 UTC NOAA

FULLERTON MUNICIPAL AIRPORT , CA, United States (KFUL) 33-52N 117-59W 35M
Sep 16, 2021 - 04:53 AM EDT / 2021.09.16 0853 UTC
Wind: Calm:0
Visibility: 9 mile(s):0
Sky conditions: overcast
Temperature: 63.0 F (17.2 C)
Dew Point: 57.9 F (14.4 C)
Relative Humidity: 83%
Pressure (altimeter): 29.89 in. Hg (1012 hPa)
Pressure tendency: 0.00 inches (0.1 hPa) higher than three hours ago
ob: KFUL 160853Z AUTO 00000KT 9SM OVC014 17/14 A2989 RMK AO2 SLP119 T01720144 50001
cycle: 9

Station Type Date Time Source
KFUL TAF UTC NOAA

Error!

Example: see airport list